Latest Coastal Weather Observations for Port Macquarie Airport

IDN60701

Issued at 1:51 pm EST Wednesday 26 April 2017 (issued every 10 minutes, with the page automatically refreshed every 10 minutes)

About coastal observations | Map of coastal stations | Coastal observations for NSW | Marine services | Other Formats
Station Details ID: 060139 Name: PORT MACQUARIE AIRPORT AWS Lat: -31.43 Lon: 152.87 Height: 4.2 m
Data from the previous 72 hours. | See also: Recent months at Port Macquarie Airport
Date/Time
EST
Temp
°C
Wind Pressure Rain since
9am
mm
Weather Cloud Vis
km
Sea
Height
m
Swell
Dir  Spd
kts
Gust
kts
hPa Trend Height
m
Period
s
Dir
26/01:30pm 19.8 N 7 10 1004.4 - 1.6 - Partly cloudy 10 - - - -
26/01:00pm 19.5 N 6 9 1004.7 - 1.6 - Partly cloudy 10 - - - -
26/12:30pm 19.9 N 6 8 1005.3 - 1.6 - Partly cloudy 10 - - - -
26/12:00pm 19.5 N 7 12 1005.8 - 1.6 Recent precip. Partly cloudy 10 - - - -
26/11:30am 19.2 N 8 11 1006.8 - 1.2 - Partly cloudy 10 - - - -
26/11:00am 19.8 N 6 9 1007.5 - 0.0 - Partly cloudy 10 - - - -
26/10:30am 19.9 N 8 12 1007.6 - 0.0 - - 10 - - - -
26/10:00am 19.3 N 5 7 1007.5 - 0.0 - - 10 - - - -
26/09:30am 19.1 N 5 7 1007.7 - 0.0 - - 10 - - - -
26/09:00am 18.5 NNW 4 6 1008.4 - 2.8 - Mostly cloudy 10 - - - -
26/08:30am 18.1 NNW 3 4 1008.6 - 2.8 - - 10 - - - -
26/08:00am 18.1 NNW 4 6 1008.9 - 2.8 - Partly cloudy 10 - - - -
26/07:30am 17.8 NNW 3 4 1008.8 - 2.8 - - 10 - - - -
26/07:00am 17.7 CALM 0 0 1008.9 - 2.8 - - 10 - - - -
26/06:30am 17.4 NNW 3 5 1008.9 - 2.8 - - 10 - - - -
26/06:00am 17.9 CALM 0 1 1008.5 - 2.8 - Cloudy 10 - - - -
26/05:30am 17.9 NNW 3 4 1008.8 - 2.8 - - 10 - - - -
26/05:00am 18.1 NNW 6 7 1008.8 - 2.8 - - 10 - - - -
26/04:30am 18.0 NNW 3 5 1008.4 - 2.8 - - 10 - - - -
26/04:00am 18.5 N 5 6 1008.3 - 2.8 - - 10 - - - -
26/03:30am 18.7 N 6 8 1008.8 - 2.6 - Partly cloudy 10 - - - -
26/03:00am 18.7 N 7 8 1009.4 - 2.6 Recent precip. Cloudy 10 - - - -
26/02:30am 18.8 N 8 10 1008.9 - 2.4 - Partly cloudy 10 - - - -
26/02:00am 18.8 N 6 8 1009.4 - 2.2 - Partly cloudy 10 - - - -
26/01:30am 19.0 N 5 7 1009.5 - 2.0 - Partly cloudy 10 - - - -
26/01:00am 18.8 CALM 0 0 1010.0 - 1.8 - - 10 - - - -
26/12:30am 19.4 NNE 3 6 1010.2 - 1.6 - Partly cloudy 10 - - - -
26/12:00am 19.5 NW 4 7 1010.5 - 1.4 - Cloudy 10 - - - -
 
Date/Time
EST
Temp
°C
Wind Pressure Rain since
9am
mm
Weather Cloud Vis
km
Sea
Height
m
Swell
Dir  Spd
kts
Gust
kts
hPa Trend Height
m
Period
s
Dir
25/11:30pm 19.7 NNW 5 6 1010.5 - 1.4 - Partly cloudy 10 - - - -
25/11:00pm 19.8 N 6 8 1010.9 - 1.4 - Cloudy 10 - - - -
25/10:30pm 20.0 N 7 9 1010.9 - 1.4 - Cloudy 10 - - - -
25/10:00pm 20.2 NNE 5 7 1011.2 - 1.2 - Cloudy 10 - - - -
25/09:30pm 20.3 NNE 4 5 1011.7 - 1.2 - Partly cloudy 10 - - - -
25/09:00pm 20.5 WNW 4 5 1012.4 - 0.6 Rain Cloudy 10 - - - -
25/08:30pm 20.9 N 6 8 1012.1 - 0.0 - Partly cloudy 10 - - - -
25/08:00pm 20.6 N 5 6 1011.9 - 0.0 - Cloudy 10 - - - -
25/07:30pm 20.8 NNE 9 12 1011.4 - 0.0 - - 10 - - - -
25/07:00pm 20.7 NNE 8 10 1011.4 - 0.0 - - 10 - - - -
25/06:30pm 20.8 NNE 8 11 1011.3 - 0.0 - - 10 - - - -
25/06:00pm 21.2 NNE 7 10 1011.0 - 0.0 - - 10 - - - -
25/05:30pm 21.8 NNE 8 12 1010.9 - 0.0 - - 10 - - - -
25/05:00pm 22.7 NNE 10 15 1011.0 - 0.0 - - 10 - - - -
25/04:30pm 23.7 NNE 9 14 1010.9 - 0.0 - Partly cloudy 10 - - - -
25/04:00pm 24.5 NNE 10 13 1011.1 - 0.0 - Partly cloudy 10 - - - -
25/03:30pm 24.9 NNE 10 15 1011.3 - 0.0 - - 10 - - - -
25/03:00pm 25.4 NNE 10 13 1011.4 - 0.0 - - 10 - - - -
25/02:30pm 24.8 ENE 9 13 1011.6 - 0.0 - - 10 - - - -
25/02:00pm 24.9 NE 9 13 1012.0 - 0.0 - - 10 - - - -
25/01:30pm 24.9 NNE 10 14 1012.4 - 0.0 - - 10 - - - -
25/01:00pm 24.9 N 11 13 1012.9 - 0.0 - - 10 - - - -
25/12:30pm 26.2 NNE 7 11 1013.6 - 0.0 - - 10 - - - -
25/12:00pm 25.2 N 9 13 1014.3 - 0.0 - Cloudy 10 - - - -
25/11:30am 24.6 N 9 11 1015.1 - 0.0 - - 10 - - - -
25/11:00am 23.5 N 7 9 1015.7 - 0.0 - - 10 - - - -
25/10:30am 22.8 N 5 9 1016.3 - 0.0 - - 10 - - - -
25/10:00am 21.7 NNW 7 9 1016.8 - 0.0 - Cloudy 10 - - - -
25/09:30am 20.7 N 8 11 1017.0 - 0.0 - Cloudy 10 - - - -
25/09:00am 18.6 N 6 8 1017.4 - 0.0 - Mostly cloudy 10 - - - -
25/08:30am 16.5 N 4 5 1017.6 - 0.0 - Partly cloudy 10 - - - -
25/08:00am 15.5 N 2 5 1017.7 - 0.0 - Partly cloudy 10 - - - -
25/07:30am 14.0 NW 3 4 1017.5 - 0.0 - - 10 - - - -
25/07:00am 13.5 NNW 3 4 1017.3 - 0.0 - - 10 - - - -
25/06:51am 13.2 NW 1 4 1017.3 - 0.0 - Partly cloudy 6 - - - -
25/06:30am 12.1 NW 3 4 1017.3 - 0.0 - Cloudy 0.6 - - - -
25/06:10am 12.6 NNW 3 4 1017.0 - 0.0 - Partly cloudy 2 - - - -
25/06:00am 12.1 NNW 3 5 1017.1 - 0.0 - Mostly clear 4 - - - -
25/05:50am 12.5 CALM 0 0 1017.2 - 0.0 - Partly cloudy 1 - - - -
25/05:30am 12.6 NNW 1 3 1017.0 - 0.0 - Cloudy 0.2 - - - -
25/05:00am 13.1 NW 4 5 1017.1 - 0.0 - Partly cloudy 0.2 - - - -
25/04:53am 11.8 NW 4 5 1017.1 - 0.0 - Partly cloudy 0.4 - - - -
25/04:30am 11.9 CALM 0 0 1017.1 - 0.0 - - 0.6 - - - -
25/04:06am 11.7 CALM 0 0 1017.3 - 0.0 - Partly cloudy 5 - - - -
25/04:00am 11.6 CALM 0 0 1017.3 - 0.0 - Partly cloudy 10 - - - -
25/03:45am 11.6 CALM 0 0 1017.4 - 0.0 - - 10 - - - -
25/03:30am 12.1 CALM 0 0 1017.4 - 0.0 - - 1 - - - -
25/03:00am 12.2 CALM 0 0 1017.9 - 0.0 - - 2 - - - -
25/02:31am 12.1 CALM 0 0 1018.0 - 0.0 - - 3 - - - -
25/02:30am 12.2 CALM 0 0 1018.0 - 0.0 - - 7 - - - -
25/02:00am 12.2 CALM 0 0 1018.3 - 0.0 - - 10 - - - -
25/01:30am 12.3 CALM 0 0 1018.4 - 0.0 - - 9 - - - -
25/01:00am 12.3 CALM 0 0 1018.7 - 0.0 - - 10 - - - -
25/12:51am 12.7 CALM 0 0 1018.8 - 0.0 - - 10 - - - -
25/12:30am 12.5 CALM 0 0 1019.1 - 0.0 - - 1 - - - -
25/12:28am 12.5 CALM 0 0 1019.2 - 0.0 - - 4 - - - -
25/12:00am 13.1 CALM 0 0 1019.5 - 0.0 - - 10 - - - -
 
Date/Time
EST
Temp
°C
Wind Pressure Rain since
9am
mm
Weather Cloud Vis
km
Sea
Height
m
Swell
Dir  Spd
kts
Gust
kts
hPa Trend Height
m
Period
s
Dir
24/11:32pm 13.0 CALM 0 0 1019.9 - 0.0 - - 10 - - - -
24/11:30pm 13.0 CALM 0 0 1019.9 - 0.0 - - 10 - - - -
24/11:13pm 12.9 CALM 0 0 1020.0 - 0.0 - - 5 - - - -
24/11:00pm 13.3 CALM 0 0 1020.0 - 0.0 - - 10 - - - -
24/10:30pm 13.8 CALM 0 0 1020.2 - 0.0 - - 10 - - - -
24/10:00pm 13.9 CALM 0 0 1020.4 - 0.0 - - 10 - - - -
24/09:32pm 14.4 CALM 0 0 1020.3 - 0.0 - - 10 - - - -
24/09:30pm 14.5 CALM 0 0 1020.3 - 0.0 - - 10 - - - -
24/09:16pm 14.7 CALM 0 0 1020.3 - 0.0 - - 5 - - - -
24/09:00pm 14.6 CALM 0 0 1020.3 - 0.0 - - 10 - - - -
24/08:30pm 15.7 CALM 0 0 1020.5 - 0.0 - - 10 - - - -
24/08:00pm 15.7 CALM 0 0 1020.3 - 0.0 - - 10 - - - -
24/07:30pm 16.4 N 1 3 1020.0 - 0.0 - - 10 - - - -
24/07:00pm 17.0 N 3 4 1020.0 - 0.0 - - 10 - - - -
24/06:30pm 18.1 NNE 3 4 1019.9 - 0.0 - - 10 - - - -
24/06:00pm 19.5 NNE 4 5 1019.6 - 0.0 - - 10 - - - -
24/05:30pm 20.2 NNE 5 7 1019.4 - 0.0 - - 10 - - - -
24/05:00pm 21.3 NE 6 8 1019.2 - 0.0 - - 10 - - - -
24/04:30pm 21.9 NE 7 10 1019.1 - 0.0 - - 10 - - - -
24/04:00pm 22.2 NE 8 11 1019.0 - 0.0 - - 10 - - - -
24/03:30pm 22.3 ENE 9 11 1019.0 - 0.0 - - 10 - - - -
24/03:00pm 22.9 ENE 8 11 1019.1 - 0.0 - - 10 - - - -
24/02:30pm 22.9 ENE 9 11 1019.2 - 0.0 - - 10 - - - -
24/02:00pm 23.1 ENE 8 11 1019.3 - 0.0 - - 10 - - - -
24/01:30pm 23.2 ENE 9 12 1019.6 - 0.0 - - 10 - - - -
24/01:00pm 23.4 ENE 9 11 1019.8 - 0.0 - - 10 - - - -
24/12:30pm 23.2 ENE 8 10 1020.2 - 0.0 - - 10 - - - -
24/12:00pm 23.8 NNE 6 8 1020.6 - 0.0 - - 10 - - - -
24/11:30am 23.6 NNE 3 6 1021.2 - 0.0 - - 10 - - - -
24/11:00am 23.6 E 4 6 1021.7 - 0.0 - - 10 - - - -
24/10:30am 22.8 NE 3 6 1022.1 - 0.0 - - 10 - - - -
24/10:00am 22.2 NNE 2 4 1022.5 - 0.0 - - 10 - - - -
24/09:30am 20.8 WSW 3 5 1022.5 - 0.0 - - 10 - - - -
24/09:00am 19.4 W 4 6 1022.5 - 0.0 - - 10 - - - -
24/08:30am 17.8 W 5 7 1022.5 - 0.0 - - 10 - - - -
24/08:00am 16.7 W 4 6 1022.3 - 0.0 - - 10 - - - -
24/07:30am 15.8 WSW 4 7 1022.1 - 0.0 - - 10 - - - -
24/07:00am 14.1 WSW 1 4 1022.0 - 0.0 - - 10 - - - -
24/06:30am 13.0 CALM 0 1 1021.7 - 0.0 - - 10 - - - -
24/06:00am 12.2 N 2 3 1021.5 - 0.0 - - 10 - - - -
24/05:51am 12.0 CALM 0 0 1021.4 - 0.0 - - 10 - - - -
24/05:34am 12.9 CALM 0 0 1021.3 - 0.0 - - 4 - - - -
24/05:30am 12.6 CALM 0 0 1021.3 - 0.0 - - 9 - - - -
24/05:00am 12.6 CALM 0 0 1021.1 - 0.0 - - 10 - - - -
24/04:33am 11.4 CALM 0 0 1020.9 - 0.0 - - 10 - - - -
24/04:30am 11.5 CALM 0 0 1020.9 - 0.0 - - 10 - - - -
24/04:00am 12.5 CALM 0 0 1020.8 - 0.0 - - 0.5 - - - -
24/03:39am 12.3 CALM 0 0 1020.9 - 0.0 - - 4 - - - -
24/03:30am 12.4 CALM 0 0 1021.0 - 0.0 - - 10 - - - -
24/03:27am 12.2 CALM 0 0 1021.0 - 0.0 - - 10 - - - -
24/03:00am 12.7 CALM 0 0 1021.1 - 0.0 - - 0.5 - - - -
24/02:30am 13.1 NW 1 3 1021.4 - 0.0 - - 0.9 - - - -
24/02:00am 13.1 CALM 0 0 1021.6 - 0.0 - - 2 - - - -
24/01:56am 13.6 CALM 0 0 1021.7 - 0.0 - - 5 - - - -
24/01:30am 14.4 CALM 0 0 1021.8 - 0.0 - - 10 - - - -
24/01:00am 13.2 CALM 0 0 1022.1 - 0.0 - - 10 - - - -
24/12:52am 12.9 CALM 0 0 1022.1 - 0.0 - - 10 - - - -
24/12:30am 13.8 CALM 0 0 1022.2 - 0.0 - - 2 - - - -
24/12:00am 12.7 CALM 0 0 1022.5 - 0.0 - - 0.5 - - - -
 
Date/Time
EST
Temp
°C
Wind Pressure Rain since
9am
mm
Weather Cloud Vis
km
Sea
Height
m
Swell
Dir  Spd
kts
Gust
kts
hPa Trend Height
m
Period
s
Dir
23/11:32pm 13.3 CALM 0 0 1022.6 - 0.0 - - 5 - - - -
23/11:30pm 13.4 CALM 0 0 1022.6 - 0.0 - - 8 - - - -
23/11:00pm 13.7 CALM 0 0 1022.9 - 0.0 - - 10 - - - -
23/10:52pm 14.0 CALM 0 0 1022.9 - 0.0 - - 10 - - - -
23/10:30pm 14.4 CALM 0 0 1022.9 - 0.0 - - 2 - - - -
23/10:25pm 14.5 CALM 0 0 1022.9 - 0.0 - - 4 - - - -
23/10:00pm 14.9 CALM 0 0 1023.1 - 0.0 - Partly cloudy 10 - - - -
23/09:30pm 15.1 CALM 0 0 1023.2 - 0.0 - Partly cloudy 10 - - - -
23/09:28pm 15.0 CALM 0 0 1023.2 - 0.0 - Partly cloudy 10 - - - -
23/09:13pm 14.3 CALM 0 0 1023.1 - 0.0 - Partly cloudy 5 - - - -
23/09:00pm 14.5 CALM 0 0 1023.1 - 0.0 - - 10 - - - -
23/08:44pm 14.8 CALM 0 0 1023.0 - 0.0 - - 10 - - - -
23/08:30pm 14.8 CALM 0 0 1022.9 - 0.0 - - 2 - - - -
23/08:22pm 14.7 CALM 0 0 1022.9 - 0.0 - - 5 - - - -
23/08:00pm 15.4 CALM 0 0 1022.7 - 0.0 - - 10 - - - -
23/07:30pm 15.8 CALM 0 0 1022.5 - 0.0 - - 10 - - - -
23/07:00pm 16.5 CALM 0 0 1022.2 - 0.0 - - 10 - - - -
23/06:30pm 17.2 CALM 0 0 1022.0 - 0.0 - - 10 - - - -
23/06:00pm 18.5 CALM 0 0 1021.6 - 0.0 - - 10 - - - -
23/05:30pm 20.5 ENE 4 5 1021.3 - 0.0 - - 10 - - - -
23/05:00pm 21.1 NE 5 6 1021.1 - 0.0 - - 10 - - - -
23/04:30pm 22.0 NE 6 8 1020.9 - 0.0 - - 10 - - - -
23/04:00pm 22.4 ENE 7 10 1020.8 - 0.0 - - 10 - - - -
23/03:30pm 22.7 ENE 7 10 1020.7 - 0.0 - - 10 - - - -
23/03:00pm 23.0 ENE 8 11 1020.7 - 0.0 - Mostly cloudy 10 - - - -
23/02:30pm 22.1 ENE 8 10 1020.8 - 0.0 - Partly cloudy 10 - - - -
23/02:00pm 22.5 ENE 9 11 1020.9 - 0.0 - - 10 - - - -

Other Formats:

Comma delimited format used in spreadsheet applications
http://www.bom.gov.au/fwo/IDN60701/IDN60701.94786.axf

JavaScript Object Notation format (JSON) in row-major order
http://www.bom.gov.au/fwo/IDN60701/IDN60701.94786.json